createdAt,value
2024-01-12T00:00:47.825Z,97177.41
2024-01-12T00:05:49.573Z,97181.41
2024-01-12T00:10:51.171Z,97179.88
2024-01-12T00:15:52.771Z,97183.91
2024-01-12T00:20:54.476Z,97188.31
2024-01-12T00:26:00.208Z,97183.25
2024-01-12T00:31:02.014Z,97182.91
2024-01-12T00:36:03.721Z,97190.41
2024-01-12T00:41:05.297Z,97185.81
2024-01-12T00:46:06.858Z,97187.19
2024-01-12T00:51:11.916Z,97172.00
2024-01-12T00:56:14.346Z,97180.38
2024-01-12T01:01:15.939Z,97183.88
2024-01-12T01:06:17.797Z,97186.31
2024-01-12T01:11:19.419Z,97192.56
2024-01-12T01:16:21.220Z,97191.72
2024-01-12T01:21:22.788Z,97192.31
2024-01-12T01:26:24.373Z,97198.91
2024-01-12T01:31:26.385Z,97199.78
2024-01-12T01:36:27.959Z,97187.88
2024-01-12T01:41:29.541Z,97197.00
2024-01-12T01:46:31.151Z,97204.53
2024-01-12T01:51:32.796Z,97200.03
2024-01-12T01:56:34.408Z,97194.22
2024-01-12T02:01:35.975Z,97189.66
2024-01-12T02:06:38.056Z,97189.75
2024-01-12T02:11:39.716Z,97202.34
2024-01-12T02:16:41.434Z,97199.97
2024-01-12T02:21:42.983Z,97205.75
2024-01-12T02:26:44.578Z,97185.84
2024-01-12T02:31:46.329Z,97181.25
2024-01-12T02:36:47.863Z,97176.06
2024-01-12T02:41:49.442Z,97175.84
2024-01-12T02:46:51.172Z,97170.97
2024-01-12T02:51:52.857Z,97178.38
2024-01-12T02:56:54.604Z,97172.94
2024-01-12T03:01:56.210Z,97180.09
2024-01-12T03:06:57.762Z,97184.66
2024-01-12T03:11:59.465Z,97186.03
2024-01-12T03:17:01.584Z,97191.13
2024-01-12T03:22:03.192Z,97188.53
2024-01-12T03:27:05.399Z,97194.97
2024-01-12T03:32:07.117Z,97200.22
2024-01-12T03:37:09.064Z,97205.59
2024-01-12T03:42:12.101Z,97213.00
2024-01-12T03:47:13.750Z,97217.78
2024-01-12T03:52:16.612Z,97218.50
2024-01-12T03:57:18.385Z,97205.91
2024-01-12T04:02:20.082Z,97197.09
2024-01-12T04:07:21.783Z,97202.34
2024-01-12T04:12:23.376Z,97208.84
2024-01-12T04:17:24.980Z,97206.34
2024-01-12T04:22:26.681Z,97203.13
2024-01-12T04:27:29.482Z,97206.53
2024-01-12T04:32:31.167Z,97208.97
2024-01-12T04:37:32.774Z,97197.81
2024-01-12T04:42:34.539Z,97202.66
2024-01-12T04:47:36.232Z,97203.34
2024-01-12T04:52:37.863Z,97209.34
2024-01-12T04:57:39.578Z,97215.63
2024-01-12T05:02:41.638Z,97220.78
2024-01-12T05:07:43.359Z,97217.34
2024-01-12T05:12:44.960Z,97225.31
2024-01-12T05:17:46.602Z,97231.38
2024-01-12T05:22:48.723Z,97222.28
2024-01-12T05:27:50.346Z,97228.25
2024-01-12T05:32:52.150Z,97236.72
2024-01-12T05:37:53.830Z,97230.91
2024-01-12T05:42:55.439Z,97234.50
2024-01-12T05:47:57.031Z,97232.81
2024-01-12T05:52:59.009Z,97232.06
2024-01-12T05:58:00.721Z,97228.72
2024-01-12T06:03:02.367Z,97235.63
2024-01-12T06:08:04.125Z,97235.06
2024-01-12T06:13:05.703Z,97230.28
2024-01-12T06:18:07.609Z,97223.66
2024-01-12T06:23:09.318Z,97219.47
2024-01-12T06:28:11.950Z,97220.56
2024-01-12T06:33:15.627Z,97218.03
2024-01-12T06:38:17.512Z,97211.38
2024-01-12T06:43:19.134Z,97217.81
2024-01-12T06:48:21.811Z,97220.53
2024-01-12T06:53:23.546Z,97225.13
2024-01-12T06:58:25.094Z,97233.44
2024-01-12T07:03:26.775Z,97228.56
2024-01-12T07:08:28.468Z,97219.94
2024-01-12T07:13:30.116Z,97230.91
2024-01-12T07:18:31.877Z,97242.03
2024-01-12T07:23:33.594Z,97248.78
2024-01-12T07:28:35.204Z,97253.78
2024-01-12T07:33:37.235Z,97253.00
2024-01-12T07:38:38.883Z,97249.00
2024-01-12T07:43:40.988Z,97258.31
2024-01-12T07:48:42.704Z,97259.53
2024-01-12T07:53:44.445Z,97264.81
2024-01-12T07:58:46.635Z,97268.16
2024-01-12T08:03:48.509Z,97266.53
2024-01-12T08:08:50.241Z,97285.13
2024-01-12T08:13:51.842Z,97290.78
2024-01-12T08:18:53.449Z,97298.13
2024-01-12T08:23:55.518Z,97311.84
2024-01-12T08:29:02.534Z,97312.66
2024-01-12T08:34:04.247Z,97317.28
2024-01-12T08:39:06.261Z,97334.72
2024-01-12T08:44:08.084Z,97325.16
2024-01-12T08:49:09.839Z,97321.44
2024-01-12T08:54:11.705Z,97324.34
2024-01-12T08:59:13.304Z,97321.00
2024-01-12T09:04:15.148Z,97329.84
2024-01-12T09:09:17.646Z,97321.94
2024-01-12T09:14:19.346Z,97326.72
2024-01-12T09:19:21.060Z,97332.56
2024-01-12T09:24:22.707Z,97330.88
2024-01-12T09:29:24.349Z,97344.06
2024-01-12T09:34:26.063Z,97325.81
2024-01-12T09:39:28.232Z,97325.66
2024-01-12T09:44:30.611Z,97323.53
2024-01-12T09:49:32.534Z,97324.66
2024-01-12T09:54:34.878Z,97329.25
2024-01-12T09:59:36.908Z,97333.13
2024-01-12T10:04:38.721Z,97335.22
2024-01-12T10:09:41.110Z,97328.31
2024-01-12T10:14:42.743Z,97344.00
2024-01-12T10:19:45.082Z,97335.34
2024-01-12T10:24:46.880Z,97325.41
2024-01-12T10:29:48.497Z,97301.97
2024-01-12T10:34:50.701Z,97304.75
2024-01-12T10:39:52.356Z,97307.19
2024-01-12T10:44:54.045Z,97303.22
2024-01-12T10:50:02.945Z,97293.84
2024-01-12T10:55:06.137Z,97291.19
2024-01-12T11:00:09.702Z,97296.88
2024-01-12T11:05:11.970Z,97293.19
2024-01-12T11:10:13.763Z,97282.78
2024-01-12T11:15:15.539Z,97291.53
2024-01-12T11:20:21.124Z,97282.00
2024-01-12T11:25:22.992Z,97281.78
2024-01-12T11:30:26.431Z,97265.09
2024-01-12T11:35:30.215Z,97258.19
2024-01-12T11:40:34.402Z,97254.03
2024-01-12T11:45:40.789Z,97253.25
2024-01-12T11:50:43.003Z,97253.84
2024-01-12T11:55:44.589Z,97243.13
2024-01-12T12:00:49.958Z,97244.91
2024-01-12T12:05:51.875Z,97245.13
2024-01-12T12:10:53.826Z,97247.69
2024-01-12T12:15:56.241Z,97232.94
2024-01-12T12:20:58.922Z,97230.97
2024-01-12T12:26:00.866Z,97211.69
2024-01-12T12:31:03.344Z,97219.78
2024-01-12T12:36:09.715Z,97201.78
2024-01-12T12:41:12.796Z,97212.25
2024-01-12T12:46:14.449Z,97203.72
2024-01-12T12:51:16.112Z,97208.19
2024-01-12T12:56:17.713Z,97199.13
2024-01-12T13:01:19.278Z,97194.28
2024-01-12T13:06:20.937Z,97190.78
2024-01-12T13:11:22.510Z,97180.06
2024-01-12T13:16:24.120Z,97177.75
2024-01-12T13:21:25.964Z,97169.97
2024-01-12T13:26:27.784Z,97163.88
2024-01-12T13:31:29.358Z,97158.88
2024-01-12T13:36:30.981Z,97158.75
2024-01-12T13:41:32.612Z,97149.09
2024-01-12T13:46:34.252Z,97149.53
2024-01-12T13:51:35.998Z,97155.63
2024-01-12T13:56:37.592Z,97139.19
2024-01-12T14:01:39.295Z,97135.25
2024-01-12T14:06:41.564Z,97139.34
2024-01-12T14:11:43.329Z,97148.63
2024-01-12T14:16:44.914Z,97141.00
2024-01-12T14:21:46.454Z,97145.25
2024-01-12T14:26:48.506Z,97151.38
2024-01-12T14:31:50.113Z,97146.44
2024-01-12T14:36:51.733Z,97149.00
2024-01-12T14:41:53.866Z,97153.69
2024-01-12T14:46:55.465Z,97158.34
2024-01-12T14:51:57.425Z,97147.31
2024-01-12T14:56:59.046Z,97151.53
2024-01-12T15:02:00.605Z,97164.06
2024-01-12T15:07:02.789Z,97170.50
2024-01-12T15:12:07.288Z,97165.56
2024-01-12T15:17:09.248Z,97154.22
2024-01-12T15:22:10.852Z,97165.03
2024-01-12T15:27:12.547Z,97155.63
2024-01-12T15:32:14.196Z,97165.91
2024-01-12T15:37:15.818Z,97159.63
2024-01-12T15:42:17.428Z,97164.78
2024-01-12T15:47:19.040Z,97165.38
2024-01-12T15:52:20.600Z,97148.84
2024-01-12T15:57:22.304Z,97151.78
2024-01-12T16:02:24.563Z,97157.41
2024-01-12T16:07:26.751Z,97159.78
2024-01-12T16:12:28.455Z,97160.50
2024-01-12T16:17:30.263Z,97168.09
2024-01-12T16:22:31.927Z,97171.88
2024-01-12T16:27:33.491Z,97172.13
2024-01-12T16:32:35.475Z,97176.59
2024-01-12T16:37:37.212Z,97177.38
2024-01-12T16:42:38.853Z,97183.91
2024-01-12T16:47:40.503Z,97174.09
2024-01-12T16:52:42.130Z,97164.47
2024-01-12T16:57:43.673Z,97168.53
2024-01-12T17:02:45.323Z,97180.56
2024-01-12T17:07:47.900Z,97178.13
2024-01-12T17:12:49.442Z,97178.81
2024-01-12T17:17:51.068Z,97185.69
2024-01-12T17:22:52.655Z,97194.19
2024-01-12T17:27:54.248Z,97193.97
2024-01-12T17:32:56.898Z,97187.91
2024-01-12T17:38:25.583Z,97181.66
2024-01-12T17:43:46.042Z,97196.34
2024-01-12T17:48:47.832Z,97199.63
2024-01-12T17:53:50.799Z,97190.78
2024-01-12T17:58:52.507Z,97195.13
2024-01-12T18:03:54.080Z,97203.22
2024-01-12T18:08:57.758Z,97204.06
2024-01-12T18:13:59.459Z,97206.63
2024-01-12T18:19:01.319Z,97211.00
2024-01-12T18:24:04.207Z,97213.13
2024-01-12T18:29:05.809Z,97203.75
2024-01-12T18:34:07.509Z,97219.94
2024-01-12T18:39:09.264Z,97206.50
2024-01-12T18:44:11.885Z,97217.22
2024-01-12T18:49:15.813Z,97209.91
2024-01-12T18:54:19.437Z,97209.38
2024-01-12T18:59:21.148Z,97198.81
2024-01-12T19:04:23.762Z,97199.47
2024-01-12T19:09:25.346Z,97192.91
2024-01-12T19:14:26.941Z,97197.88
2024-01-12T19:19:28.672Z,97200.16
2024-01-12T19:24:30.315Z,97186.00
2024-01-12T19:29:33.869Z,97186.38
2024-01-12T19:34:50.056Z,97202.25
2024-01-12T19:39:51.693Z,97194.13
2024-01-12T19:44:53.396Z,97199.13
2024-01-12T19:49:55.000Z,97200.41
2024-01-12T19:54:56.535Z,97197.81
2024-01-12T19:59:58.127Z,97198.75
2024-01-12T20:05:00.275Z,97201.31
2024-01-12T20:10:02.433Z,97203.53
2024-01-12T20:15:05.355Z,97198.44
2024-01-12T20:20:08.414Z,97193.88
2024-01-12T20:25:10.274Z,97190.94
2024-01-12T20:30:12.693Z,97195.03
2024-01-12T20:35:14.548Z,97199.72
2024-01-12T20:40:16.142Z,97203.75
2024-01-12T20:45:18.038Z,97201.09
2024-01-12T20:50:19.894Z,97191.91
2024-01-12T20:55:21.451Z,97188.63
2024-01-12T21:00:23.290Z,97196.69
2024-01-12T21:05:25.653Z,97187.28
2024-01-12T21:10:27.413Z,97188.63
2024-01-12T21:15:31.609Z,97196.13
2024-01-12T21:20:33.260Z,97196.09
2024-01-12T21:25:34.862Z,97191.09
2024-01-12T21:30:36.504Z,97185.41
2024-01-12T21:35:38.146Z,97178.97
2024-01-12T21:40:39.863Z,97175.03
2024-01-12T21:45:41.758Z,97171.31
2024-01-12T21:50:43.407Z,97175.47
2024-01-12T21:55:45.046Z,97178.69
2024-01-12T22:00:46.653Z,97160.81
2024-01-12T22:05:48.398Z,97157.44
2024-01-12T22:10:50.092Z,97153.84
2024-01-12T22:15:51.717Z,97155.97
2024-01-12T22:20:53.864Z,97153.53
2024-01-12T22:25:55.530Z,97145.94
2024-01-12T22:30:57.184Z,97144.78
2024-01-12T22:35:58.777Z,97142.16
2024-01-12T22:41:00.373Z,97136.34
2024-01-12T22:46:02.295Z,97140.63
2024-01-12T22:51:04.159Z,97138.72
2024-01-12T22:56:05.929Z,97145.41
2024-01-12T23:01:07.513Z,97128.50
2024-01-12T23:06:10.441Z,97130.06
2024-01-12T23:11:12.045Z,97132.50
2024-01-12T23:16:13.673Z,97112.25
2024-01-12T23:21:15.334Z,97116.84
2024-01-12T23:26:17.029Z,97103.09
2024-01-12T23:31:18.768Z,97106.38
2024-01-12T23:36:21.857Z,97106.41
2024-01-12T23:41:31.039Z,97106.72
2024-01-12T23:46:32.941Z,97097.09
2024-01-12T23:51:34.502Z,97099.19
2024-01-12T23:56:36.099Z,97084.59
